Time;durP1;ratioP1;P1;durP2;ratioP2;P2;SDS_P1;SDS_P2;PMS_P1;PMS_P2;Temp;Humidity;BMP_temperature;BMP_pressure;BME280_temperature;BME280_humidity;BME280_pressure;Samples;Min_cycle;Max_cycle;Signal;HPM_P1;HPM_P2
2022/06/21 00:22:52;;;;;;;6.68;3.10;;;16.00;96.90;;;;;;7356364;19;109016;-93
2022/06/21 00:25:25;;;;;;;11.23;3.20;;;15.90;97.30;;;;;;7352834;19;107434;-93
2022/06/21 00:27:53;;;;;;;6.70;3.05;;;15.90;97.30;;;;;;7351697;19;110959;-93
2022/06/21 00:30:22;;;;;;;6.18;3.30;;;15.90;97.10;;;;;;7352243;19;110553;-93
2022/06/21 00:32:52;;;;;;;12.43;3.90;;;15.90;97.20;;;;;;7350289;19;109032;-94
2022/06/21 00:35:23;;;;;;;14.98;4.28;;;15.90;97.50;;;;;;7350560;19;112206;-93
2022/06/21 00:37:51;;;;;;;11.48;3.80;;;15.70;97.60;;;;;;7352836;19;108047;-94
2022/06/21 00:40:31;;;;;;;7.05;3.72;;;15.60;98.30;;;;;;7350391;19;109019;-93
2022/06/21 00:43:07;;;;;;;10.30;3.90;;;15.50;98.90;;;;;;7357105;19;109008;-94
2022/06/21 00:45:39;;;;;;;7.43;4.38;;;15.50;99.00;;;;;;7352164;19;108257;-94
2022/06/21 00:48:24;;;;;;;11.38;4.07;;;15.40;99.50;;;;;;7350360;19;108194;-94
2022/06/21 00:50:57;;;;;;;6.38;3.90;;;15.20;99.90;;;;;;7351298;19;107895;-94
2022/06/21 00:53:34;;;;;;;8.13;3.47;;;15.20;99.80;;;;;;7352674;19;107244;-92
2022/06/21 00:56:22;;;;;;;6.32;2.88;;;15.20;99.60;;;;;;7350436;19;111419;-92
2022/06/21 00:58:50;;;;;;;10.25;3.75;;;15.30;99.10;;;;;;7349001;19;107458;-94
2022/06/21 01:01:27;;;;;;;11.43;3.35;;;15.30;99.10;;;;;;7349867;19;108753;-93
2022/06/21 01:04:20;;;;;;;;;;;15.40;98.90;;;;;;7352974;19;109200;-93
2022/06/21 01:06:53;;;;;;;6.57;3.58;;;15.30;98.90;;;;;;7355962;19;109076;-93
2022/06/21 01:09:33;;;;;;;8.15;3.35;;;15.20;99.00;;;;;;7350980;19;109381;-94
2022/06/21 01:12:10;;;;;;;5.90;3.15;;;15.20;99.00;;;;;;7350227;19;108289;-93
2022/06/21 01:14:43;;;;;;;6.65;3.65;;;15.20;99.00;;;;;;7350678;19;108159;-93
2022/06/21 01:17:12;;;;;;;11.75;4.07;;;15.10;98.90;;;;;;7348283;19;111919;-93
2022/06/21 01:19:43;;;;;;;6.90;3.53;;;15.10;99.20;;;;;;7348240;19;107675;-93
2022/06/21 01:22:29;;;;;;;9.80;3.58;;;15.00;99.60;;;;;;7349922;19;107595;-93
2022/06/21 01:25:24;;;;;;;7.97;4.40;;;14.90;99.40;;;;;;7349954;19;108249;-93
2022/06/21 01:27:55;;;;;;;10.38;4.18;;;14.90;99.70;;;;;;7348801;19;108208;-92
2022/06/21 01:30:24;;;;;;;9.40;3.88;;;14.70;99.90;;;;;;7354562;19;107641;-94
2022/06/21 01:32:52;;;;;;;11.13;4.63;;;14.60;99.90;;;;;;7347497;19;107185;-92
2022/06/21 01:35:42;;;;;;;11.27;4.50;;;14.60;99.90;;;;;;7348901;19;111336;-95
2022/06/21 01:38:14;;;;;;;13.23;4.47;;;14.60;99.90;;;;;;7348848;19;109080;-93
2022/06/21 01:40:46;;;;;;;9.85;4.13;;;14.60;99.90;;;;;;7350168;19;109154;-92
2022/06/21 01:43:19;;;;;;;9.90;4.40;;;14.60;99.90;;;;;;7349955;19;106968;-92
2022/06/21 01:46:01;;;;;;;8.45;4.25;;;14.70;99.90;;;;;;7348661;19;107962;-92
2022/06/21 01:48:42;;;;;;;10.75;4.40;;;14.70;99.90;;;;;;7349225;19;107009;-94
2022/06/21 01:51:17;;;;;;;10.07;4.10;;;14.60;99.90;;;;;;7348953;19;109935;-92
2022/06/21 01:53:45;;;;;;;10.13;4.88;;;14.60;99.90;;;;;;7354094;19;110060;-94
2022/06/21 01:56:25;;;;;;;10.40;5.18;;;14.50;99.90;;;;;;7348791;19;110600;-93
2022/06/21 01:58:58;;;;;;;12.73;5.40;;;14.30;99.90;;;;;;7346691;19;108067;-94
2022/06/21 02:01:44;;;;;;;11.02;5.28;;;14.00;99.90;;;;;;7347962;19;108215;-93
2022/06/21 02:04:16;;;;;;;17.10;5.85;;;14.00;99.90;;;;;;7348787;19;107213;-92
2022/06/21 02:06:46;;;;;;;15.48;7.18;;;13.80;99.90;;;;;;7348448;19;108165;-93
2022/06/21 02:09:24;;;;;;;13.82;6.00;;;13.60;99.90;;;;;;7348459;19;107989;-92
2022/06/21 02:11:56;;;;;;;;;;;13.60;99.90;;;;;;7349422;19;108667;-93
2022/06/21 02:14:29;;;;;;;8.48;4.45;;;13.60;99.90;;;;;;7350681;19;108851;-92
2022/06/21 02:17:05;;;;;;;13.10;4.60;;;13.70;99.90;;;;;;7353561;19;107210;-93
2022/06/21 02:19:42;;;;;;;9.50;4.20;;;13.80;99.90;;;;;;7352177;19;107962;-92
2022/06/21 02:22:19;;;;;;;8.82;4.38;;;13.90;99.90;;;;;;7355677;19;109895;-93
2022/06/21 02:24:49;;;;;;;9.23;4.60;;;13.90;99.90;;;;;;7355760;19;107902;-93
2022/06/21 02:27:19;;;;;;;9.55;4.95;;;13.90;99.90;;;;;;7354405;19;108219;-92
2022/06/21 02:29:51;;;;;;;11.85;4.85;;;13.90;99.90;;;;;;7354038;19;109825;-92
2022/06/21 02:32:29;;;;;;;7.60;4.40;;;14.00;99.90;;;;;;7354599;19;110591;-92
2022/06/21 02:35:06;;;;;;;10.27;4.50;;;13.90;99.90;;;;;;7351064;19;110572;-93
2022/06/21 02:37:35;;;;;;;11.07;4.50;;;13.90;99.90;;;;;;7355413;19;108858;-92
2022/06/21 02:40:07;;;;;;;9.65;4.93;;;13.90;99.90;;;;;;7357909;19;107281;-93
2022/06/21 02:42:38;;;;;;;7.07;4.68;;;13.90;99.90;;;;;;7354171;19;107451;-93
2022/06/21 02:45:15;;;;;;;12.35;4.90;;;13.80;99.90;;;;;;7355261;19;111218;-93
2022/06/21 02:47:45;;;;;;;9.73;4.60;;;13.80;99.90;;;;;;7353698;19;109112;-92
2022/06/21 02:50:56;;;;;;;8.05;4.30;;;13.80;99.90;;;;;;7354776;19;108024;-92
2022/06/21 02:53:32;;;;;;;6.90;4.18;;;13.70;99.90;;;;;;7351294;19;108110;-93
2022/06/21 02:56:14;;;;;;;11.68;4.68;;;13.60;99.90;;;;;;7348026;19;108924;-92
2022/06/21 02:58:51;;;;;;;8.57;4.43;;;13.60;99.90;;;;;;7349383;19;107345;-93
2022/06/21 03:01:29;;;;;;;9.88;3.92;;;13.50;99.90;;;;;;7355813;19;110904;-92
2022/06/21 03:03:57;;;;;;;10.70;4.55;;;13.30;99.90;;;;;;7351010;19;111676;-93
2022/06/21 03:06:27;;;;;;;6.85;4.40;;;13.20;99.90;;;;;;7351446;19;107539;-93
2022/06/21 03:09:02;;;;;;;12.13;4.82;;;13.30;99.90;;;;;;7351026;19;109124;-93
2022/06/21 03:11:40;;;;;;;8.82;4.75;;;13.30;99.90;;;;;;7350218;19;107897;-93
2022/06/21 03:14:12;;;;;;;7.88;4.75;;;13.20;99.90;;;;;;7350582;19;107907;-93
2022/06/21 03:16:42;;;;;;;10.15;4.75;;;13.20;99.90;;;;;;7349418;19;112037;-92
2022/06/21 03:19:25;;;;;;;7.82;4.55;;;13.10;99.90;;;;;;7350138;19;107223;-93
2022/06/21 03:21:54;;;;;;;10.90;4.70;;;13.00;99.90;;;;;;7350115;19;108064;-93
2022/06/21 03:24:25;;;;;;;8.18;4.07;;;13.00;99.90;;;;;;7355771;19;108509;-92
2022/06/21 03:27:05;;;;;;;11.45;5.13;;;13.00;99.90;;;;;;7351272;19;108051;-92
2022/06/21 03:29:33;;;;;;;12.32;5.97;;;13.00;99.90;;;;;;7350000;19;110336;-93
2022/06/21 03:32:03;;;;;;;13.02;5.07;;;13.00;99.90;;;;;;7353401;19;108123;-92
2022/06/21 03:34:33;;;;;;;11.32;5.32;;;12.90;99.90;;;;;;7351050;19;109877;-93
2022/06/21 03:37:00;;;;;;;8.82;4.57;;;12.80;99.90;;;;;;7352108;19;108068;-93
2022/06/21 03:42:19;;;;;;;11.00;6.97;;;12.80;99.90;;;;;;7353899;19;108370;-93
2022/06/21 03:45:01;;;;;;;15.18;7.68;;;12.80;99.90;;;;;;7354160;19;109244;-93
2022/06/21 03:47:37;;;;;;;17.55;7.57;;;12.60;99.90;;;;;;7358360;19;108254;-93
2022/06/21 03:50:23;;;;;;;15.00;6.97;;;12.60;99.90;;;;;;7353016;19;107863;-93
2022/06/21 03:52:59;;;;;;;17.63;7.30;;;12.80;99.90;;;;;;7353582;19;107283;-93
2022/06/21 03:55:36;;;;;;;11.30;6.50;;;12.80;99.90;;;;;;7351910;19;110496;-92
2022/06/21 03:58:39;;;;;;;15.80;7.00;;;12.90;99.90;;;;;;7352994;19;111313;-93
2022/06/21 04:01:14;;;;;;;16.88;7.95;;;13.00;99.90;;;;;;7351250;19;107964;-92
2022/06/21 04:03:55;;;;;;;23.00;7.68;;;12.90;99.90;;;;;;7351220;19;107980;-93
2022/06/21 04:06:34;;;;;;;13.63;8.10;;;12.90;99.90;;;;;;7352993;19;108139;-93
2022/06/21 04:09:13;;;;;;;13.52;7.78;;;13.00;99.90;;;;;;7352688;19;107369;-92
2022/06/21 04:12:12;;;;;;;18.90;7.78;;;13.00;99.90;;;;;;7357757;19;108119;-93
2022/06/21 04:15:06;;;;;;;19.15;7.43;;;13.00;99.90;;;;;;7352252;19;110643;-93
2022/06/21 04:18:02;;;;;;;13.63;6.90;;;13.10;99.90;;;;;;7351421;19;107077;-93
2022/06/21 04:21:00;;;;;;;21.67;7.82;;;13.20;99.90;;;;;;7349044;19;107883;-93
2022/06/21 04:23:41;;;;;;;16.25;7.60;;;13.30;99.90;;;;;;7349411;19;108644;-93
2022/06/21 04:26:16;;;;;;;13.52;8.02;;;13.30;99.90;;;;;;7352803;19;107480;-93
2022/06/21 04:29:14;;;;;;;15.10;8.05;;;13.20;99.90;;;;;;7349835;19;110677;-92
2022/06/21 04:31:48;;;;;;;22.52;7.53;;;13.20;99.90;;;;;;7348974;19;111669;-93
2022/06/21 04:34:21;;;;;;;16.60;7.85;;;13.20;99.90;;;;;;7349816;19;107943;-92
2022/06/21 04:36:58;;;;;;;16.42;7.90;;;13.30;99.90;;;;;;7355967;19;108961;-93
2022/06/21 04:39:49;;;;;;;14.90;7.70;;;13.30;99.90;;;;;;7350284;19;108429;-93
2022/06/21 04:42:45;;;;;;;20.30;7.85;;;13.40;99.90;;;;;;7350987;19;108157;-92
2022/06/21 04:45:28;;;;;;;14.68;7.57;;;13.50;99.90;;;;;;7351748;19;107939;-92
2022/06/21 04:48:09;;;;;;;25.92;7.97;;;13.50;99.90;;;;;;7351995;19;107113;-93
2022/06/21 04:51:04;;;;;;;21.27;8.02;;;13.70;99.90;;;;;;7350763;19;109338;-92
2022/06/21 04:54:04;;;;;;;13.05;7.57;;;13.70;99.90;;;;;;7351162;19;109437;-93
2022/06/21 04:56:51;;;;;;;13.80;7.18;;;13.80;99.90;;;;;;7351413;19;108526;-92
2022/06/21 04:59:26;;;;;;;19.60;7.57;;;13.80;99.90;;;;;;7350606;19;108145;-92
2022/06/21 05:01:54;;;;;;;12.23;7.07;;;13.90;99.90;;;;;;7355887;19;109382;-93
2022/06/21 05:04:27;;;;;;;16.48;7.32;;;14.00;99.90;;;;;;7350590;19;107970;-93
2022/06/21 05:06:56;;;;;;;19.60;7.20;;;14.10;99.90;;;;;;7352219;19;107608;-93
2022/06/21 05:09:26;;;;;;;18.58;6.90;;;14.20;99.90;;;;;;7350017;19;110440;-92
2022/06/21 05:12:22;;;;;;;20.85;6.53;;;14.30;99.90;;;;;;7349184;19;110160;-92
2022/06/21 05:14:54;;;;;;;23.88;6.65;;;14.40;99.90;;;;;;7350905;19;108057;-92
2022/06/21 05:17:22;;;;;;;17.02;6.20;;;14.50;99.90;;;;;;7350277;19;108298;-93
2022/06/21 05:19:56;;;;;;;17.48;6.22;;;14.50;99.90;;;;;;7349861;19;109248;-93
2022/06/21 05:22:37;;;;;;;16.55;6.30;;;14.60;99.90;;;;;;7355424;19;109633;-92
2022/06/21 05:25:17;;;;;;;12.73;6.53;;;14.70;99.90;;;;;;7350331;19;110002;-93
2022/06/21 05:28:04;;;;;;;15.20;5.82;;;14.80;99.90;;;;;;7349208;19;108254;-92
2022/06/21 05:31:00;;;;;;;21.70;6.10;;;14.80;99.90;;;;;;7349828;19;108027;-92
2022/06/21 05:33:35;;;;;;;20.30;5.50;;;15.00;99.90;;;;;;7349488;19;109084;-94
2022/06/21 05:36:06;;;;;;;17.73;5.93;;;15.10;99.90;;;;;;7349008;19;109614;-93
2022/06/21 05:38:36;;;;;;;24.48;5.85;;;15.20;99.90;;;;;;7351208;19;108214;-92
2022/06/21 05:41:29;;;;;;;19.45;5.85;;;15.30;99.90;;;;;;7347419;19;109266;-93
2022/06/21 05:44:14;;;;;;;25.73;6.88;;;15.40;99.90;;;;;;7349945;19;108620;-93
2022/06/21 05:46:56;;;;;;;17.30;5.65;;;15.50;99.90;;;;;;7355686;19;108069;-94
2022/06/21 05:49:28;;;;;;;22.58;5.95;;;15.60;99.90;;;;;;7349678;19;107551;-94
2022/06/21 05:52:00;;;;;;;15.45;6.30;;;15.60;99.90;;;;;;7349334;19;109466;-93
2022/06/21 05:54:58;;;;;;;34.05;6.43;;;15.70;99.90;;;;;;7362041;19;108057;-92
2022/06/21 05:57:39;;;;;;;38.67;6.90;;;15.80;99.90;;;;;;7361744;19;106919;-89
2022/06/21 06:00:22;;;;;;;19.52;6.82;;;15.90;99.90;;;;;;7355469;19;108269;-89
2022/06/21 06:02:53;;;;;;;19.13;6.30;;;16.10;99.90;;;;;;7358668;19;113489;-88
2022/06/21 06:05:27;;;;;;;31.13;6.35;;;16.20;99.90;;;;;;7358884;19;107678;-90
2022/06/21 06:08:26;;;;;;;11.93;6.07;;;16.30;99.90;;;;;;7355506;19;108307;-88
2022/06/21 06:10:56;;;;;;;14.45;6.47;;;16.40;99.90;;;;;;7361013;19;108374;-88
2022/06/21 06:13:37;;;;;;;25.30;6.80;;;16.50;99.90;;;;;;7355434;19;109053;-89
2022/06/21 06:16:32;;;;;;;23.98;6.68;;;16.60;99.90;;;;;;7359408;19;110747;-91
2022/06/21 06:19:11;;;;;;;15.15;6.88;;;16.70;99.90;;;;;;7359331;19;108053;-91
2022/06/21 06:21:47;;;;;;;10.95;6.18;;;16.80;99.90;;;;;;7357110;19;108262;-90
2022/06/21 06:24:30;;;;;;;12.43;5.68;;;16.80;99.90;;;;;;7358966;19;109274;-90
2022/06/21 06:27:00;;;;;;;30.90;6.35;;;16.80;99.90;;;;;;7358358;19;108366;-92
2022/06/21 06:29:31;;;;;;;23.75;6.53;;;16.90;99.90;;;;;;7357370;19;110066;-88
2022/06/21 06:32:14;;;;;;;11.02;5.15;;;16.90;99.90;;;;;;7357631;19;108976;-89
2022/06/21 06:34:46;;;;;;;11.52;5.38;;;17.00;99.90;;;;;;7359321;19;109931;-88
2022/06/21 06:37:36;;;;;;;10.50;5.53;;;17.00;99.90;;;;;;7359447;19;108156;-90
2022/06/21 06:40:32;;;;;;;15.38;5.63;;;17.10;99.90;;;;;;7357763;19;107246;-89
2022/06/21 06:43:12;;;;;;;13.38;5.32;;;17.10;99.90;;;;;;7359939;19;107637;-91
2022/06/21 06:45:42;;;;;;;9.63;5.05;;;17.10;99.90;;;;;;7359600;19;108748;-90
2022/06/21 06:48:18;;;;;;;24.48;5.25;;;17.20;99.90;;;;;;7358783;19;108450;-91
2022/06/21 06:50:51;;;;;;;14.82;5.07;;;17.20;99.90;;;;;;7358962;19;109053;-90
2022/06/21 06:53:27;;;;;;;16.42;5.35;;;17.30;99.90;;;;;;7360800;19;108883;-92
2022/06/21 06:56:00;;;;;;;24.48;5.75;;;17.50;99.90;;;;;;7360315;19;108832;-92
2022/06/21 06:58:43;;;;;;;12.98;5.13;;;17.60;99.90;;;;;;7364422;19;108027;-91
2022/06/21 07:01:29;;;;;;;14.98;5.20;;;17.90;99.90;;;;;;7355113;19;109186;-89
2022/06/21 07:04:02;;;;;;;16.42;5.28;;;18.00;99.90;;;;;;7353875;19;110508;-93
2022/06/21 07:06:44;;;;;;;15.52;4.90;;;18.10;99.90;;;;;;7352408;19;107380;-90
2022/06/21 07:09:11;;;;;;;11.90;4.65;;;18.20;99.90;;;;;;7350530;19;107458;-90
2022/06/21 07:11:38;;;;;;;16.08;5.07;;;18.30;99.90;;;;;;7349733;19;108689;-90
2022/06/21 07:14:19;;;;;;;17.85;4.85;;;18.30;99.90;;;;;;7350546;19;111661;-90
2022/06/21 07:16:52;;;;;;;11.90;4.82;;;18.40;99.90;;;;;;7350320;19;107927;-89
2022/06/21 07:19:19;;;;;;;26.20;5.53;;;18.50;99.90;;;;;;7357258;19;108592;-91
2022/06/21 07:21:46;;;;;;;11.18;4.90;;;18.40;99.90;;;;;;7348225;19;107894;-89
2022/06/21 07:24:19;;;;;;;9.35;4.72;;;18.50;99.90;;;;;;7350747;19;107855;-89
2022/06/21 07:26:59;;;;;;;11.85;4.75;;;18.50;99.90;;;;;;7350414;19;109247;-93
2022/06/21 07:29:38;;;;;;;14.10;5.00;;;18.70;99.90;;;;;;7348538;19;109406;-90
2022/06/21 07:32:13;;;;;;;21.63;4.53;;;18.90;99.90;;;;;;7351978;19;110267;-92
2022/06/21 07:34:53;;;;;;;25.05;5.18;;;19.00;99.80;;;;;;7346705;19;111338;-90
2022/06/21 07:37:27;;;;;;;24.90;5.32;;;19.00;99.40;;;;;;7350536;19;108446;-90
2022/06/21 07:40:15;;;;;;;18.48;4.60;;;19.10;99.50;;;;;;7348463;19;108003;-89
2022/06/21 07:42:49;;;;;;;7.00;4.20;;;19.20;99.10;;;;;;7354451;19;109150;-90
2022/06/21 07:45:26;;;;;;;15.18;4.90;;;19.20;98.90;;;;;;7350026;19;111247;-90
2022/06/21 07:48:28;;;;;;;9.02;4.30;;;19.20;98.90;;;;;;7345666;19;111751;-86
2022/06/21 07:50:59;;;;;;;24.35;5.47;;;19.40;99.10;;;;;;7338763;19;110248;-85
2022/06/21 07:53:41;;;;;;;14.77;4.80;;;19.50;98.90;;;;;;7342136;19;108470;-86
2022/06/21 07:56:23;;;;;;;9.60;4.05;;;19.60;98.50;;;;;;7341277;19;108343;-85
2022/06/21 07:59:16;;;;;;;8.73;4.68;;;19.60;97.90;;;;;;7341671;19;108138;-85
2022/06/21 08:08:23;;;;;;;19.27;5.65;;;19.60;97.50;;;;;;7348624;19;107396;-85
2022/06/21 08:10:59;;;;;;;13.32;4.47;;;19.50;98.20;;;;;;7338863;19;109220;-84
2022/06/21 08:13:28;;;;;;;19.42;5.30;;;19.70;98.10;;;;;;7342264;19;108239;-86
2022/06/21 08:16:08;;;;;;;11.07;4.72;;;19.80;98.10;;;;;;7341316;19;108407;-85
2022/06/21 08:19:08;;;;;;;10.93;4.70;;;19.90;97.30;;;;;;7341108;19;109432;-85
2022/06/21 08:22:01;;;;;;;15.07;4.63;;;19.90;97.60;;;;;;7339805;19;108591;-85
2022/06/21 08:25:05;;;;;;;12.27;4.63;;;20.00;97.40;;;;;;7338841;19;108219;-85
2022/06/21 08:27:45;;;;;;;31.13;5.05;;;20.00;97.10;;;;;;7343876;19;108926;-85
2022/06/21 08:30:18;;;;;;;13.80;4.57;;;20.10;97.20;;;;;;7340595;19;110156;-86
2022/06/21 08:33:05;;;;;;;12.20;3.90;;;20.20;97.20;;;;;;7349615;19;109621;-84
2022/06/21 08:35:49;;;;;;;18.27;5.03;;;20.40;96.90;;;;;;7340375;19;108020;-86
2022/06/21 08:38:37;;;;;;;9.98;4.13;;;20.60;96.90;;;;;;7342427;19;108262;-85
2022/06/21 08:42:02;;;;;;;6.47;3.55;;;20.80;95.50;;;;;;7341131;19;109241;-85
2022/06/21 08:44:29;;;;;;;11.63;3.80;;;21.00;95.70;;;;;;7341278;19;109525;-84
2022/06/21 08:47:34;;;;;;;9.02;3.92;;;21.10;94.50;;;;;;7341531;19;108497;-85
2022/06/21 08:50:37;;;;;;;12.93;3.30;;;20.80;94.20;;;;;;7344590;19;109298;-85
2022/06/21 08:53:13;;;;;;;7.80;2.88;;;20.90;93.60;;;;;;7341835;19;107324;-85
2022/06/21 08:55:54;;;;;;;12.00;2.97;;;21.10;94.10;;;;;;7340916;19;109255;-85
2022/06/21 08:58:38;;;;;;;8.80;2.42;;;21.10;93.30;;;;;;7349066;19;109016;-86
2022/06/21 09:01:30;;;;;;;20.92;3.20;;;21.20;93.00;;;;;;7340873;19;108559;-85
2022/06/21 09:04:28;;;;;;;5.47;3.05;;;21.20;93.30;;;;;;7341145;19;112287;-85
2022/06/21 09:06:58;;;;;;;9.85;3.17;;;21.20;93.00;;;;;;7342002;19;108404;-85
2022/06/21 09:09:31;;;;;;;4.30;2.28;;;21.20;93.20;;;;;;7343841;19;108257;-85
2022/06/21 09:12:10;;;;;;;3.75;1.95;;;21.20;92.10;;;;;;7343434;19;109182;-85
2022/06/21 09:14:40;;;;;;;11.77;3.25;;;21.00;92.00;;;;;;7343891;19;110706;-85
2022/06/21 09:17:33;;;;;;;8.57;2.38;;;21.00;92.90;;;;;;7342763;19;110179;-85
2022/06/21 09:20:03;;;;;;;36.47;4.00;;;21.10;92.50;;;;;;7343316;19;112041;-85
2022/06/21 09:23:05;;;;;;;7.15;2.95;;;21.20;93.20;;;;;;7344843;19;108658;-85
2022/06/21 09:26:04;;;;;;;8.27;2.97;;;21.30;92.80;;;;;;7343109;19;111129;-85
2022/06/21 09:28:42;;;;;;;18.00;3.05;;;21.30;91.70;;;;;;7339799;19;107284;-84
2022/06/21 09:31:30;;;;;;;10.00;2.97;;;21.20;92.20;;;;;;7343177;19;109989;-85
2022/06/21 09:34:08;;;;;;;4.55;2.47;;;21.20;92.40;;;;;;7339132;19;110251;-84
2022/06/21 09:37:02;;;;;;;5.82;2.65;;;21.10;91.50;;;;;;7343036;19;107784;-84
2022/06/21 09:39:35;;;;;;;8.75;2.53;;;21.00;92.20;;;;;;7343025;19;110530;-85
2022/06/21 09:42:02;;;;;;;17.67;4.35;;;21.00;92.50;;;;;;7340271;19;109296;-84
2022/06/21 09:44:46;;;;;;;26.60;3.55;;;21.10;92.70;;;;;;7344892;19;108342;-85
2022/06/21 09:47:31;;;;;;;14.68;3.40;;;21.20;92.30;;;;;;7341786;19;108788;-86
2022/06/21 09:50:34;;;;;;;12.00;3.15;;;21.20;92.30;;;;;;7343320;19;107098;-87
2022/06/21 09:53:24;;;;;;;14.90;3.50;;;21.10;92.70;;;;;;7342213;19;108300;-87
2022/06/21 09:56:05;;;;;;;11.95;3.00;;;21.20;92.50;;;;;;7339628;19;109436;-87
2022/06/21 09:59:14;;;;;;;18.05;3.35;;;21.20;92.60;;;;;;7340420;19;108237;-87
2022/06/21 10:01:49;;;;;;;;;;;21.40;92.50;;;;;;7341458;19;109766;-88
2022/06/21 10:04:31;;;;;;;12.68;3.22;;;21.40;92.30;;;;;;7343070;19;108269;-84
2022/06/21 10:07:05;;;;;;;21.25;4.07;;;21.50;92.70;;;;;;7336289;19;108090;-83
2022/06/21 10:10:17;;;;;;;5.75;2.92;;;21.60;92.40;;;;;;7342426;19;108171;-83
2022/06/21 10:13:03;;;;;;;6.63;3.20;;;21.60;91.20;;;;;;7338883;19;108016;-83
2022/06/21 10:16:00;;;;;;;6.50;2.90;;;21.40;91.70;;;;;;7338570;19;110151;-86
2022/06/21 10:18:30;;;;;;;9.20;2.88;;;21.50;91.20;;;;;;7340406;19;109062;-85
2022/06/21 10:21:20;;;;;;;6.43;3.08;;;21.50;91.90;;;;;;7340020;19;107983;-84
2022/06/21 10:24:12;;;;;;;7.88;3.15;;;21.60;91.40;;;;;;7339869;19;107995;-84
2022/06/21 10:27:08;;;;;;;6.93;2.88;;;21.70;91.00;;;;;;7341122;19;109879;-84
2022/06/21 10:30:00;;;;;;;20.55;3.10;;;21.70;91.10;;;;;;7336567;19;107985;-84
2022/06/21 10:32:38;;;;;;;15.25;3.78;;;21.80;91.30;;;;;;7339481;19;108618;-85
2022/06/21 10:35:17;;;;;;;7.47;2.92;;;21.90;91.00;;;;;;7345702;19;108331;-83
2022/06/21 10:38:08;;;;;;;13.95;3.30;;;21.70;89.10;;;;;;7340045;19;108416;-84
2022/06/21 10:40:44;;;;;;;21.58;3.63;;;21.70;90.40;;;;;;7346755;19;108940;-83
2022/06/21 10:43:28;;;;;;;12.55;3.10;;;21.70;90.40;;;;;;7343470;19;108294;-84
2022/06/21 10:46:20;;;;;;;9.57;3.50;;;21.80;90.50;;;;;;7344604;19;111039;-84
2022/06/21 10:49:09;;;;;;;13.02;3.40;;;21.90;90.40;;;;;;7346853;19;108778;-84
2022/06/21 10:51:41;;;;;;;19.75;3.92;;;22.00;90.80;;;;;;7348240;19;108365;-85
2022/06/21 10:54:26;;;;;;;18.90;2.97;;;22.00;90.60;;;;;;7346856;19;108081;-85
2022/06/21 10:57:34;;;;;;;5.78;2.60;;;21.90;90.60;;;;;;7345874;19;108335;-84
2022/06/21 11:03:44;;;;;;;5.68;2.45;;;21.80;90.10;;;;;;7340245;19;108923;-83
2022/06/21 11:06:59;;;;;;;5.28;2.20;;;21.80;88.80;;;;;;7343457;19;107858;-84
2022/06/21 11:10:00;;;;;;;4.05;2.25;;;21.70;88.10;;;;;;7342813;19;108234;-84
2022/06/21 11:15:50;;;;;;;7.18;2.35;;;21.50;89.40;;;;;;7343095;19;107409;-84
2022/06/21 11:18:32;;;;;;;6.88;2.38;;;21.50;87.70;;;;;;7342784;19;108294;-85
2022/06/21 11:21:07;;;;;;;6.50;2.10;;;21.40;87.50;;;;;;7342085;19;108222;-84
2022/06/21 11:23:54;;;;;;;5.75;2.00;;;21.30;87.10;;;;;;7340562;19;108353;-84
2022/06/21 11:26:27;;;;;;;10.50;2.37;;;21.30;88.10;;;;;;7348426;19;108235;-87
2022/06/21 11:29:18;;;;;;;7.72;2.92;;;21.40;87.60;;;;;;7342123;19;108114;-84
2022/06/21 11:32:03;;;;;;;13.07;2.80;;;21.40;88.90;;;;;;7343525;19;109006;-84
2022/06/21 11:34:32;;;;;;;20.90;3.67;;;21.50;88.60;;;;;;7340110;19;109209;-85
2022/06/21 11:37:16;;;;;;;16.85;3.30;;;21.70;89.10;;;;;;7341716;19;108655;-83
2022/06/21 11:40:01;;;;;;;11.45;2.40;;;21.80;89.00;;;;;;7343849;19;111192;-84
2022/06/21 11:42:49;;;;;;;12.02;2.42;;;21.80;88.40;;;;;;7344712;19;108913;-85
2022/06/21 11:45:40;;;;;;;14.50;2.45;;;21.80;89.20;;;;;;7346303;19;107934;-85
2022/06/21 11:48:23;;;;;;;11.70;2.17;;;21.80;89.00;;;;;;7344555;19;108189;-85
2022/06/21 11:51:11;;;;;;;9.88;2.58;;;21.80;88.70;;;;;;7348386;19;108970;-84
2022/06/21 11:53:48;;;;;;;;;;;21.70;88.60;;;;;;7343472;19;108637;-83
2022/06/21 11:56:22;;;;;;;13.32;2.50;;;21.60;88.80;;;;;;7347715;19;109428;-84
2022/06/21 11:59:32;;;;;;;10.80;2.63;;;21.60;89.90;;;;;;7345103;19;107385;-83
2022/06/21 12:02:30;;;;;;;26.13;3.10;;;21.50;89.20;;;;;;7340963;19;108157;-84
2022/06/21 12:05:16;;;;;;;;;;;21.50;90.00;;;;;;7343851;19;108920;-83
2022/06/21 12:07:57;;;;;;;15.70;2.50;;;21.40;89.20;;;;;;7345263;19;108174;-84
2022/06/21 12:10:36;;;;;;;7.18;2.00;;;21.20;88.90;;;;;;7343979;19;108996;-84
2022/06/21 12:13:24;;;;;;;8.43;1.80;;;21.20;88.50;;;;;;7351052;19;109021;-83
2022/06/21 12:22:32;;;;;;;7.35;1.95;;;21.10;89.90;;;;;;7344630;19;107464;-84
2022/06/21 12:24:59;;;;;;;10.38;1.90;;;21.00;90.00;;;;;;7343167;19;108323;-84
2022/06/21 12:27:26;;;;;;;10.52;2.10;;;20.90;90.00;;;;;;7344421;19;109163;-84
2022/06/21 12:30:07;;;;;;;5.97;1.92;;;20.90;90.10;;;;;;7345852;19;108361;-84
2022/06/21 12:32:34;;;;;;;5.45;2.15;;;20.90;89.50;;;;;;7344859;19;108527;-84
2022/06/21 12:35:07;;;;;;;19.73;2.45;;;20.90;90.40;;;;;;7341140;19;108703;-84
2022/06/21 12:37:54;;;;;;;15.32;2.05;;;20.90;90.60;;;;;;7348865;19;110512;-84
2022/06/21 12:44:06;;;;;;;5.80;2.10;;;20.80;90.10;;;;;;7340057;19;107225;-84
2022/06/21 12:46:48;;;;;;;32.30;2.67;;;20.80;90.40;;;;;;7345267;19;108641;-83
2022/06/21 12:49:15;;;;;;;19.58;2.30;;;20.70;90.40;;;;;;7346085;19;108526;-84
2022/06/21 12:51:56;;;;;;;7.50;1.70;;;20.60;90.10;;;;;;7346100;19;108070;-83
2022/06/21 12:54:48;;;;;;;7.25;1.80;;;20.60;89.20;;;;;;7344096;19;108208;-83
2022/06/21 12:57:32;;;;;;;4.15;1.40;;;20.60;89.90;;;;;;7345555;19;109291;-84
2022/06/21 13:00:08;;;;;;;4.32;1.70;;;20.50;90.10;;;;;;7344674;19;108336;-84
2022/06/21 13:03:14;;;;;;;6.07;1.60;;;20.60;90.20;;;;;;7344966;19;108254;-84
2022/06/21 13:06:15;;;;;;;5.10;1.98;;;20.50;89.80;;;;;;7345232;19;108577;-84
2022/06/21 13:09:01;;;;;;;13.95;2.28;;;20.50;90.20;;;;;;7344911;19;107757;-84
2022/06/21 13:11:49;;;;;;;6.00;1.70;;;20.60;90.70;;;;;;7344503;19;109267;-84
2022/06/21 13:14:35;;;;;;;7.82;2.05;;;20.60;90.30;;;;;;7344627;19;108225;-84
2022/06/21 13:20:47;;;;;;;6.80;2.10;;;20.50;90.70;;;;;;7342170;19;107192;-84
2022/06/21 13:23:16;;;;;;;5.75;1.73;;;20.40;90.70;;;;;;7342783;19;108242;-84
2022/06/21 13:25:56;;;;;;;5.82;1.92;;;20.40;90.70;;;;;;7344027;19;108211;-84
2022/06/21 13:28:37;;;;;;;12.73;2.03;;;20.30;91.00;;;;;;7350076;19;108812;-84
2022/06/21 13:35:05;;;;;;;10.23;2.00;;;20.50;91.50;;;;;;7340899;19;108220;-83
2022/06/21 13:37:46;;;;;;;8.38;1.80;;;20.60;91.10;;;;;;7342389;19;108873;-84
2022/06/21 13:40:59;;;;;;;11.65;2.03;;;20.60;90.90;;;;;;7343167;19;108663;-84
2022/06/21 13:43:47;;;;;;;5.55;1.85;;;20.60;91.40;;;;;;7340284;19;109233;-84
2022/06/21 13:50:04;;;;;;;5.22;2.05;;;20.50;93.10;;;;;;7337352;19;107578;-84
2022/06/21 13:52:55;;;;;;;5.97;2.15;;;20.50;92.90;;;;;;7341268;19;109288;-84
2022/06/21 13:55:45;;;;;;;5.97;1.80;;;20.50;93.10;;;;;;7346413;19;107982;-85
2022/06/21 13:58:39;;;;;;;8.90;2.25;;;20.50;93.40;;;;;;7341138;19;108337;-84
2022/06/21 14:01:29;;;;;;;11.48;2.45;;;20.50;93.70;;;;;;7341629;19;107996;-84
2022/06/21 14:04:09;;;;;;;5.22;1.80;;;20.50;94.30;;;;;;7339107;19;107591;-84
2022/06/21 14:07:04;;;;;;;7.38;2.35;;;20.50;94.00;;;;;;7339621;19;107913;-85
2022/06/21 14:09:47;;;;;;;8.05;2.22;;;20.50;94.20;;;;;;7339696;19;109308;-84
2022/06/21 14:12:25;;;;;;;8.95;1.90;;;20.50;95.30;;;;;;7341161;19;108157;-85
2022/06/21 14:15:07;;;;;;;3.28;1.88;;;20.50;95.10;;;;;;7342482;19;112545;-85
2022/06/21 14:17:50;;;;;;;8.93;2.42;;;20.50;95.50;;;;;;7345445;19;107964;-84
2022/06/21 14:20:57;;;;;;;4.35;2.00;;;20.50;95.40;;;;;;7352616;19;108534;-85
2022/06/21 14:23:37;;;;;;;5.72;2.03;;;20.40;95.20;;;;;;7343666;19;107937;-84
2022/06/21 14:26:31;;;;;;;9.70;2.55;;;20.30;95.00;;;;;;7344123;19;111801;-84
2022/06/21 14:29:16;;;;;;;6.75;2.08;;;20.40;95.20;;;;;;7341851;19;109169;-84
2022/06/21 14:31:58;;;;;;;8.68;2.40;;;20.50;95.10;;;;;;7344510;19;108718;-84
2022/06/21 14:34:55;;;;;;;5.38;2.17;;;20.60;94.50;;;;;;7342374;19;108451;-84
2022/06/21 14:37:39;;;;;;;8.45;2.13;;;20.70;94.70;;;;;;7344222;19;109133;-84
2022/06/21 14:40:40;;;;;;;5.85;1.90;;;20.80;94.70;;;;;;7343861;19;107960;-84
2022/06/21 14:43:45;;;;;;;6.00;2.15;;;20.90;94.90;;;;;;7348575;19;109069;-84